Time;durP1;ratioP1;P1;durP2;ratioP2;P2;SDS_P1;SDS_P2;PMS_P1;PMS_P2;Temp;Humidity;BMP_temperature;BMP_pressure;BME280_temperature;BME280_humidity;BME280_pressure;Samples;Min_cycle;Max_cycle;Signal;HPM_P1;HPM_P2
2022/03/03 00:00:22;;;;;;;18.23;13.57;;;;;;;;;;5078284;28;20238;-66
2022/03/03 00:02:48;;;;;;;19.47;12.40;;;;;;;;;;5097327;28;20201;-66
2022/03/03 00:05:14;;;;;;;18.53;12.93;;;;;;;;;;5078823;28;20174;-66
2022/03/03 00:07:40;;;;;;;17.63;13.07;;;;;;;;;;5096342;28;20426;-66
2022/03/03 00:10:07;;;;;;;19.40;13.90;;;;;;;;;;5096096;28;20411;-66
2022/03/03 00:12:33;;;;;;;16.77;12.43;;;;;;;;;;5096417;28;20407;-67
2022/03/03 00:14:59;;;;;;;19.97;12.80;;;;;;;;;;5095948;28;20181;-66
2022/03/03 00:17:25;;;;;;;17.33;12.93;;;;;;;;;;5095825;28;20477;-65
2022/03/03 00:19:51;;;;;;;18.23;13.20;;;;;;;;;;5095819;28;20414;-65
2022/03/03 00:22:17;;;;;;;18.80;13.17;;;;;;;;;;5095882;28;20447;-66
2022/03/03 00:24:43;;;;;;;19.17;12.80;;;;;;;;;;5095560;28;20418;-66
2022/03/03 00:27:11;;;;;;;20.47;12.90;;;;;;;;;;5095629;28;20195;-65
2022/03/03 00:29:36;;;;;;;18.87;13.60;;;;;;;;;;5078236;28;20573;-66
2022/03/03 00:32:02;;;;;;;19.47;13.43;;;;;;;;;;5095827;28;20411;-65
2022/03/03 00:34:28;;;;;;;18.43;13.40;;;;;;;;;;5095448;28;20207;-66
2022/03/03 00:36:54;;;;;;;19.50;13.90;;;;;;;;;;5094624;28;20451;-66
2022/03/03 00:39:20;;;;;;;18.37;14.23;;;;;;;;;;5095437;28;20230;-65
2022/03/03 00:41:46;;;;;;;19.47;13.60;;;;;;;;;;5077143;28;20626;-65
2022/03/03 00:44:12;;;;;;;20.27;13.97;;;;;;;;;;5095428;28;20220;-66
2022/03/03 00:46:38;;;;;;;21.00;13.53;;;;;;;;;;5095121;28;20189;-66
2022/03/03 00:49:04;;;;;;;20.67;14.13;;;;;;;;;;5077091;28;20177;-66
2022/03/03 00:51:31;;;;;;;21.80;14.77;;;;;;;;;;5076989;28;20414;-66
2022/03/03 00:53:57;;;;;;;20.57;15.03;;;;;;;;;;5095238;28;20277;-66
2022/03/03 00:56:23;;;;;;;19.33;13.87;;;;;;;;;;5095557;28;20234;-66
2022/03/03 00:58:49;;;;;;;21.30;14.30;;;;;;;;;;5076749;28;20659;-66
2022/03/03 01:01:16;;;;;;;19.43;13.93;;;;;;;;;;5076761;28;20538;-65
2022/03/03 01:03:42;;;;;;;21.23;14.63;;;;;;;;;;5095012;28;20343;-66
2022/03/03 01:06:09;;;;;;;22.63;14.37;;;;;;;;;;5094648;28;20525;-65
2022/03/03 01:08:34;;;;;;;21.40;13.80;;;;;;;;;;5094938;28;20231;-65
2022/03/03 01:11:00;;;;;;;19.80;14.07;;;;;;;;;;5076529;28;20461;-66
2022/03/03 01:13:26;;;;;;;21.10;14.00;;;;;;;;;;5076572;28;20700;-66
2022/03/03 01:15:53;;;;;;;20.27;14.77;;;;;;;;;;5094825;28;20688;-65
2022/03/03 01:18:19;;;;;;;23.10;14.37;;;;;;;;;;5094530;28;20169;-66
2022/03/03 01:20:45;;;;;;;19.20;14.23;;;;;;;;;;5094710;28;20458;-66
2022/03/03 01:23:11;;;;;;;21.23;14.23;;;;;;;;;;5094841;28;20571;-65
2022/03/03 01:25:37;;;;;;;20.63;14.83;;;;;;;;;;5076416;28;20180;-65
2022/03/03 01:28:03;;;;;;;23.43;13.80;;;;;;;;;;5094889;28;20226;-65
2022/03/03 01:30:29;;;;;;;22.80;14.33;;;;;;;;;;5076357;28;20226;-65
2022/03/03 01:32:55;;;;;;;21.67;14.00;;;;;;;;;;5094382;28;20404;-66
2022/03/03 01:35:21;;;;;;;18.07;13.70;;;;;;;;;;5076477;28;20637;-66
2022/03/03 01:37:47;;;;;;;25.43;13.57;;;;;;;;;;5094267;28;20644;-66
2022/03/03 01:40:13;;;;;;;20.83;15.47;;;;;;;;;;5094459;28;20404;-66
2022/03/03 01:42:40;;;;;;;22.83;15.60;;;;;;;;;;5076036;28;20835;-66
2022/03/03 01:45:06;;;;;;;24.13;14.80;;;;;;;;;;5094037;28;20408;-66
2022/03/03 01:47:32;;;;;;;21.67;14.17;;;;;;;;;;5075880;28;20451;-66
2022/03/03 01:49:58;;;;;;;24.07;15.80;;;;;;;;;;5093450;28;20205;-66
2022/03/03 01:52:25;;;;;;;22.70;15.00;;;;;;;;;;5075979;28;20645;-66
2022/03/03 01:54:51;;;;;;;24.73;14.23;;;;;;;;;;5094347;28;20691;-66
2022/03/03 01:57:17;;;;;;;20.67;14.70;;;;;;;;;;5093968;28;20988;-66
2022/03/03 01:59:43;;;;;;;21.83;13.97;;;;;;;;;;5093826;28;20439;-65
2022/03/03 02:02:10;;;;;;;18.97;14.53;;;;;;;;;;5075711;28;20455;-66
2022/03/03 02:04:38;;;;;;;18.70;13.73;;;;;;;;;;5094034;28;20407;-66
2022/03/03 02:07:04;;;;;;;22.17;14.87;;;;;;;;;;5094068;28;20419;-66
2022/03/03 02:09:30;;;;;;;25.23;14.43;;;;;;;;;;5076035;28;20419;-66
2022/03/03 02:11:56;;;;;;;26.63;15.07;;;;;;;;;;5093888;28;20422;-66
2022/03/03 02:14:22;;;;;;;22.33;15.27;;;;;;;;;;5093780;28;20233;-66
2022/03/03 02:16:48;;;;;;;24.47;17.03;;;;;;;;;;5093689;28;20522;-65
2022/03/03 02:19:17;;;;;;;21.40;14.87;;;;;;;;;;5075676;28;20539;-66
2022/03/03 02:21:43;;;;;;;23.63;14.50;;;;;;;;;;5093911;28;20249;-66
2022/03/03 02:24:09;;;;;;;22.23;14.80;;;;;;;;;;5075698;28;20464;-66
2022/03/03 02:26:35;;;;;;;19.73;14.30;;;;;;;;;;5093613;28;20196;-67
2022/03/03 02:29:01;;;;;;;19.50;14.03;;;;;;;;;;5075615;28;20474;-66
2022/03/03 02:31:27;;;;;;;29.23;15.50;;;;;;;;;;5093441;28;20411;-66
2022/03/03 02:33:54;;;;;;;26.10;15.97;;;;;;;;;;5075433;28;20423;-66
2022/03/03 02:36:25;;;;;;;24.20;14.97;;;;;;;;;;5076453;28;20220;-67
2022/03/03 02:38:52;;;;;;;21.50;15.07;;;;;;;;;;5095387;28;20797;-66
2022/03/03 02:41:18;;;;;;;23.93;14.60;;;;;;;;;;5093623;28;20417;-66
2022/03/03 02:43:44;;;;;;;22.70;14.90;;;;;;;;;;5093518;28;20541;-66
2022/03/03 02:46:10;;;;;;;20.37;14.67;;;;;;;;;;5093794;28;20272;-65
2022/03/03 02:48:36;;;;;;;18.90;13.63;;;;;;;;;;5093535;28;20187;-66
2022/03/03 02:51:02;;;;;;;20.50;14.23;;;;;;;;;;5076089;28;20480;-66
2022/03/03 02:53:28;;;;;;;24.20;16.53;;;;;;;;;;5076385;28;20420;-66
2022/03/03 02:55:54;;;;;;;23.83;14.90;;;;;;;;;;5094719;28;20811;-66
2022/03/03 02:58:20;;;;;;;24.53;16.10;;;;;;;;;;5094422;28;20177;-66
2022/03/03 03:00:47;;;;;;;25.50;16.73;;;;;;;;;;5096077;28;20645;-66
2022/03/03 03:03:17;;;;;;;21.90;15.23;;;;;;;;;;5079316;28;20486;-66
2022/03/03 03:05:43;;;;;;;22.27;16.00;;;;;;;;;;5097249;28;20414;-66
2022/03/03 03:08:09;;;;;;;22.57;15.30;;;;;;;;;;5078797;28;20411;-65
2022/03/03 03:10:35;;;;;;;19.83;14.90;;;;;;;;;;5097007;28;20952;-66
2022/03/03 03:13:01;;;;;;;18.57;13.57;;;;;;;;;;5078778;28;20476;-66
2022/03/03 03:15:27;;;;;;;22.23;14.50;;;;;;;;;;5097244;28;20407;-65
2022/03/03 03:17:53;;;;;;;20.27;14.57;;;;;;;;;;5078519;28;20439;-66
2022/03/03 03:20:19;;;;;;;20.60;14.37;;;;;;;;;;5078779;28;20553;-65
2022/03/03 03:22:45;;;;;;;24.97;15.00;;;;;;;;;;5078597;28;20454;-65
2022/03/03 03:25:13;;;;;;;24.00;14.40;;;;;;;;;;5096910;28;20404;-66
2022/03/03 03:27:40;;;;;;;24.87;13.77;;;;;;;;;;5078548;28;20201;-65
2022/03/03 03:30:07;;;;;;;21.97;14.50;;;;;;;;;;5096503;28;20403;-65
2022/03/03 03:32:33;;;;;;;19.47;14.77;;;;;;;;;;5078611;28;20541;-65
2022/03/03 03:34:59;;;;;;;23.23;14.97;;;;;;;;;;5078688;28;20901;-66
2022/03/03 03:37:25;;;;;;;20.73;14.87;;;;;;;;;;5096324;28;20244;-65
2022/03/03 03:39:51;;;;;;;22.77;15.33;;;;;;;;;;5096972;28;20472;-65
2022/03/03 03:42:17;;;;;;;21.60;14.33;;;;;;;;;;5078192;28;20211;-65
2022/03/03 03:44:43;;;;;;;20.50;14.03;;;;;;;;;;5096491;28;20173;-65
2022/03/03 03:47:10;;;;;;;19.70;13.83;;;;;;;;;;5096298;28;20919;-66
2022/03/03 03:49:36;;;;;;;21.53;13.53;;;;;;;;;;5078080;28;20184;-65
2022/03/03 03:52:03;;;;;;;20.17;14.00;;;;;;;;;;5096200;28;20492;-65
2022/03/03 03:54:29;;;;;;;20.97;13.83;;;;;;;;;;5096284;28;20443;-66
2022/03/03 03:56:55;;;;;;;21.27;13.47;;;;;;;;;;5077999;28;20478;-65
2022/03/03 03:59:21;;;;;;;19.97;13.50;;;;;;;;;;5096876;28;20204;-65
2022/03/03 04:01:47;;;;;;;19.67;13.03;;;;;;;;;;5096283;28;20633;-66
2022/03/03 04:04:13;;;;;;;22.03;13.50;;;;;;;;;;5096141;28;20415;-65
2022/03/03 04:06:39;;;;;;;19.70;12.57;;;;;;;;;;5095963;28;20442;-66
2022/03/03 04:09:05;;;;;;;19.87;13.47;;;;;;;;;;5077838;28;20178;-65
2022/03/03 04:11:31;;;;;;;19.20;13.53;;;;;;;;;;5076770;28;20173;-66
2022/03/03 04:13:57;;;;;;;18.80;13.33;;;;;;;;;;5077810;28;20911;-66
2022/03/03 04:16:26;;;;;;;17.93;12.97;;;;;;;;;;5095846;28;20980;-65
2022/03/03 04:18:52;;;;;;;18.20;12.00;;;;;;;;;;5095848;28;20407;-66
2022/03/03 04:21:18;;;;;;;18.30;12.33;;;;;;;;;;5077385;28;20425;-66
2022/03/03 04:23:44;;;;;;;16.60;11.93;;;;;;;;;;5095603;28;20573;-66
2022/03/03 04:26:10;;;;;;;17.17;12.70;;;;;;;;;;5095431;28;20784;-66
2022/03/03 04:28:36;;;;;;;20.17;12.53;;;;;;;;;;5077164;28;20453;-65
2022/03/03 04:31:03;;;;;;;24.20;12.47;;;;;;;;;;5077347;28;20260;-66
2022/03/03 04:33:29;;;;;;;18.47;12.57;;;;;;;;;;5095474;28;20430;-65
2022/03/03 04:35:56;;;;;;;18.30;13.63;;;;;;;;;;5095232;28;20446;-65
2022/03/03 04:38:22;;;;;;;17.67;12.63;;;;;;;;;;5095395;28;20395;-66
2022/03/03 04:40:48;;;;;;;18.47;12.13;;;;;;;;;;5095240;28;20403;-66
2022/03/03 04:43:14;;;;;;;17.47;12.63;;;;;;;;;;5076891;28;20511;-66
2022/03/03 04:45:40;;;;;;;17.93;12.50;;;;;;;;;;5095118;28;20184;-66
2022/03/03 04:48:06;;;;;;;20.80;12.37;;;;;;;;;;5095321;28;20256;-66
2022/03/03 04:50:32;;;;;;;16.40;11.67;;;;;;;;;;5095645;28;20197;-66
2022/03/03 04:52:58;;;;;;;22.27;12.60;;;;;;;;;;5076993;28;20472;-66
2022/03/03 04:55:24;;;;;;;17.63;12.63;;;;;;;;;;5076908;28;20427;-66
2022/03/03 04:57:50;;;;;;;18.33;13.27;;;;;;;;;;5095378;28;20231;-66
2022/03/03 05:00:17;;;;;;;20.30;13.20;;;;;;;;;;5095158;28;20544;-66
2022/03/03 05:02:43;;;;;;;21.53;13.33;;;;;;;;;;5095220;28;20702;-66
2022/03/03 05:05:09;;;;;;;20.07;14.10;;;;;;;;;;5077127;28;20412;-65
2022/03/03 05:07:35;;;;;;;23.27;14.10;;;;;;;;;;5095903;28;20193;-66
2022/03/03 05:10:01;;;;;;;21.13;13.90;;;;;;;;;;5080860;28;20422;-66
2022/03/03 05:12:27;;;;;;;25.73;14.33;;;;;;;;;;5089945;28;20200;-65
2022/03/03 05:14:53;;;;;;;22.10;14.23;;;;;;;;;;5090002;28;20439;-66
2022/03/03 05:17:19;;;;;;;20.90;12.83;;;;;;;;;;5089486;28;21015;-65
2022/03/03 05:19:45;;;;;;;18.60;11.73;;;;;;;;;;5089270;28;20184;-65
2022/03/03 05:22:11;;;;;;;18.97;11.20;;;;;;;;;;5108277;28;20443;-65
2022/03/03 05:24:38;;;;;;;17.27;11.83;;;;;;;;;;5109565;28;20184;-65
2022/03/03 05:27:04;;;;;;;19.40;12.77;;;;;;;;;;5110116;28;20199;-65
2022/03/03 05:29:30;;;;;;;18.43;11.37;;;;;;;;;;5090883;28;20412;-65
2022/03/03 05:32:00;;;;;;;19.40;12.17;;;;;;;;;;5098167;28;20461;-66
2022/03/03 05:34:29;;;;;;;20.77;12.40;;;;;;;;;;5096004;28;20403;-66
2022/03/03 05:36:55;;;;;;;18.53;12.50;;;;;;;;;;5095266;28;20443;-65
2022/03/03 05:39:22;;;;;;;19.40;13.17;;;;;;;;;;5078327;28;20419;-65
2022/03/03 05:41:48;;;;;;;20.10;13.33;;;;;;;;;;5107896;28;20493;-65
2022/03/03 05:44:14;;;;;;;18.87;12.93;;;;;;;;;;5109110;28;20411;-65
2022/03/03 05:46:43;;;;;;;19.67;12.80;;;;;;;;;;5091625;28;20432;-65
2022/03/03 05:49:10;;;;;;;19.53;12.97;;;;;;;;;;5109313;28;20907;-65
2022/03/03 05:51:36;;;;;;;19.03;12.57;;;;;;;;;;5090589;28;20442;-65
2022/03/03 05:54:03;;;;;;;18.63;12.77;;;;;;;;;;5104507;28;20445;-65
2022/03/03 05:56:30;;;;;;;20.53;13.27;;;;;;;;;;5094381;28;20423;-65
2022/03/03 05:58:58;;;;;;;19.97;13.57;;;;;;;;;;5076086;28;20506;-65
2022/03/03 06:01:24;;;;;;;22.37;14.30;;;;;;;;;;5094312;28;20980;-65
2022/03/03 06:03:50;;;;;;;23.10;14.07;;;;;;;;;;5093887;28;20447;-64
2022/03/03 06:06:17;;;;;;;23.20;13.73;;;;;;;;;;5075716;28;20443;-64
2022/03/03 06:08:52;;;;;;;37.77;14.23;;;;;;;;;;5094028;28;20204;-65
2022/03/03 06:11:20;;;;;;;20.17;13.20;;;;;;;;;;5093894;28;20410;-65
2022/03/03 06:13:47;;;;;;;23.47;13.37;;;;;;;;;;5093603;28;20465;-64
2022/03/03 06:16:18;;;;;;;26.40;14.43;;;;;;;;;;5075468;28;20434;-65
2022/03/03 06:18:45;;;;;;;25.70;14.60;;;;;;;;;;5075619;28;20415;-64
2022/03/03 06:21:11;;;;;;;22.30;14.37;;;;;;;;;;5075513;28;20408;-64
2022/03/03 06:23:37;;;;;;;19.73;13.37;;;;;;;;;;5107532;22;20514;-64
2022/03/03 06:26:05;;;;;;;25.67;14.30;;;;;;;;;;5093835;28;20177;-65
2022/03/03 06:28:32;;;;;;;19.87;12.70;;;;;;;;;;5075637;28;20560;-62
2022/03/03 06:30:58;;;;;;;21.47;14.33;;;;;;;;;;5093812;28;20411;-65
2022/03/03 06:33:25;;;;;;;23.60;13.10;;;;;;;;;;5093691;28;20514;-64
2022/03/03 06:35:51;;;;;;;22.30;13.33;;;;;;;;;;5096392;28;20773;-65
2022/03/03 06:38:17;;;;;;;22.63;13.73;;;;;;;;;;5097878;28;20757;-65
2022/03/03 06:40:43;;;;;;;20.30;12.87;;;;;;;;;;5079682;28;20443;-64
2022/03/03 06:43:09;;;;;;;19.13;12.67;;;;;;;;;;5097602;28;20561;-64
2022/03/03 06:45:35;;;;;;;19.17;13.63;;;;;;;;;;5079862;28;20429;-64
2022/03/03 06:48:03;;;;;;;23.73;13.10;;;;;;;;;;5098224;28;20412;-65
2022/03/03 06:50:28;;;;;;;20.93;13.33;;;;;;;;;;5098286;28;20403;-64
2022/03/03 06:52:55;;;;;;;22.40;13.43;;;;;;;;;;5098074;28;20457;-62
2022/03/03 06:55:22;;;;;;;21.77;13.60;;;;;;;;;;5098505;28;20260;-65
2022/03/03 06:57:53;;;;;;;26.43;12.27;;;;;;;;;;5098170;28;20421;-64
2022/03/03 07:00:24;;;;;;;22.77;13.07;;;;;;;;;;5080066;28;20419;-65
2022/03/03 07:02:52;;;;;;;22.07;13.37;;;;;;;;;;5098042;28;20505;-64
2022/03/03 07:05:18;;;;;;;22.23;13.13;;;;;;;;;;5098538;28;20411;-63
2022/03/03 07:07:45;;;;;;;21.53;12.53;;;;;;;;;;5098206;28;20544;-64
2022/03/03 07:10:12;;;;;;;18.67;12.53;;;;;;;;;;5098366;28;20177;-65
2022/03/03 07:12:38;;;;;;;21.10;12.33;;;;;;;;;;5098137;28;20487;-65
2022/03/03 07:15:05;;;;;;;25.90;12.40;;;;;;;;;;5097838;28;20178;-66
2022/03/03 07:17:41;;;;;;;21.90;12.90;;;;;;;;;;5097846;28;20456;-64
2022/03/03 07:20:07;;;;;;;23.67;12.70;;;;;;;;;;5098096;28;20406;-64
2022/03/03 07:22:40;;;;;;;21.13;12.30;;;;;;;;;;5079258;28;20492;-65
2022/03/03 07:25:09;;;;;;;20.00;12.73;;;;;;;;;;5079680;28;20427;-64
2022/03/03 07:27:36;;;;;;;24.30;13.90;;;;;;;;;;5097856;28;20407;-64
2022/03/03 07:30:07;;;;;;;25.67;12.73;;;;;;;;;;5097645;28;20206;-64
2022/03/03 07:32:34;;;;;;;24.43;12.30;;;;;;;;;;5097507;28;20399;-64
2022/03/03 07:35:01;;;;;;;31.73;14.40;;;;;;;;;;5097813;28;20177;-64
2022/03/03 07:37:32;;;;;;;24.83;13.07;;;;;;;;;;5079405;28;20189;-64
2022/03/03 07:40:02;;;;;;;28.30;14.17;;;;;;;;;;5098370;28;20177;-64
2022/03/03 07:42:28;;;;;;;25.37;13.47;;;;;;;;;;5097952;28;20197;-63
2022/03/03 07:44:55;;;;;;;29.50;14.97;;;;;;;;;;5097745;28;20230;-65
2022/03/03 07:47:21;;;;;;;26.07;13.83;;;;;;;;;;5097203;28;20169;-63
2022/03/03 07:49:48;;;;;;;24.43;14.23;;;;;;;;;;5079493;28;20181;-63
2022/03/03 07:52:13;;;;;;;30.73;14.23;;;;;;;;;;5097620;28;20447;-63
2022/03/03 07:54:39;;;;;;;25.23;13.37;;;;;;;;;;5097802;28;20197;-63
2022/03/03 07:57:08;;;;;;;29.90;14.90;;;;;;;;;;5097076;28;20188;-63
2022/03/03 07:59:35;;;;;;;28.20;14.20;;;;;;;;;;5097405;28;20181;-65
2022/03/03 08:02:03;;;;;;;30.80;14.30;;;;;;;;;;5097333;28;20226;-64
2022/03/03 08:04:29;;;;;;;23.70;12.70;;;;;;;;;;5096919;28;20193;-63
2022/03/03 08:07:16;;;;;;;22.90;13.40;;;;;;;;;;5096945;28;20252;-63
2022/03/03 08:09:42;;;;;;;18.20;12.80;;;;;;;;;;5097085;28;20286;-63
2022/03/03 08:12:08;;;;;;;25.20;13.90;;;;;;;;;;5096815;28;20169;-63
2022/03/03 08:14:34;;;;;;;19.97;12.70;;;;;;;;;;5096977;28;20230;-63
2022/03/03 08:17:00;;;;;;;23.30;14.10;;;;;;;;;;5078630;28;20172;-64
2022/03/03 08:19:26;;;;;;;27.80;13.53;;;;;;;;;;5096273;28;20192;-65
2022/03/03 08:21:52;;;;;;;22.97;13.67;;;;;;;;;;5096263;28;20536;-64
2022/03/03 08:24:18;;;;;;;25.10;14.33;;;;;;;;;;5078134;28;20213;-64
2022/03/03 08:26:45;;;;;;;21.37;13.60;;;;;;;;;;5096755;28;20169;-62
2022/03/03 08:29:11;;;;;;;19.97;12.83;;;;;;;;;;5096607;28;20208;-65
2022/03/03 08:31:41;;;;;;;31.53;14.30;;;;;;;;;;5096694;28;20556;-69
2022/03/03 08:34:16;;;;;;;20.60;13.00;;;;;;;;;;5096813;28;20708;-63
2022/03/03 08:36:45;;;;;;;30.10;14.17;;;;;;;;;;5096901;28;20238;-63
2022/03/03 08:39:12;;;;;;;27.77;13.83;;;;;;;;;;5096167;28;20204;-64
2022/03/03 08:41:39;;;;;;;21.00;13.03;;;;;;;;;;5095057;28;20641;-65
2022/03/03 08:44:07;;;;;;;17.60;12.03;;;;;;;;;;5096177;28;20212;-65
2022/03/03 08:46:34;;;;;;;22.20;12.47;;;;;;;;;;5095987;28;20638;-63
2022/03/03 08:49:01;;;;;;;22.30;12.97;;;;;;;;;;5096647;28;20511;-64
2022/03/03 08:51:27;;;;;;;19.93;11.93;;;;;;;;;;5096239;28;20184;-64
2022/03/03 08:53:53;;;;;;;21.53;11.93;;;;;;;;;;5077857;28;20201;-64
2022/03/03 08:56:19;;;;;;;25.17;11.80;;;;;;;;;;5095824;28;20518;-63
2022/03/03 08:58:45;;;;;;;18.27;11.17;;;;;;;;;;5096125;28;20185;-63
2022/03/03 09:01:11;;;;;;;17.53;10.90;;;;;;;;;;5078021;28;20698;-63
2022/03/03 09:03:40;;;;;;;17.63;11.37;;;;;;;;;;5096535;28;20266;-64
2022/03/03 09:06:06;;;;;;;15.93;10.63;;;;;;;;;;5096330;28;20588;-63
2022/03/03 09:08:32;;;;;;;23.10;11.23;;;;;;;;;;5078122;28;20181;-64
2022/03/03 09:10:58;;;;;;;19.03;10.80;;;;;;;;;;5096271;28;20543;-63
2022/03/03 09:13:24;;;;;;;19.07;10.77;;;;;;;;;;5095849;28;20201;-64
2022/03/03 09:15:51;;;;;;;19.37;11.20;;;;;;;;;;5096201;28;20591;-63
2022/03/03 09:18:17;;;;;;;15.73;11.00;;;;;;;;;;5077919;28;20187;-64
2022/03/03 09:20:43;;;;;;;14.50;10.77;;;;;;;;;;5096616;28;20176;-62
2022/03/03 09:23:09;;;;;;;21.53;11.70;;;;;;;;;;5095275;28;20220;-63
2022/03/03 09:25:36;;;;;;;19.03;10.03;;;;;;;;;;5095050;28;20260;-63
2022/03/03 09:28:03;;;;;;;19.13;11.87;;;;;;;;;;5095987;28;20169;-65
2022/03/03 09:30:29;;;;;;;16.63;11.13;;;;;;;;;;5095320;28;20177;-64
2022/03/03 09:32:55;;;;;;;24.77;12.17;;;;;;;;;;5094276;28;20579;-64
2022/03/03 09:35:21;;;;;;;16.40;11.27;;;;;;;;;;5076915;28;20230;-63
2022/03/03 09:37:48;;;;;;;20.07;11.03;;;;;;;;;;5094430;28;20180;-65
2022/03/03 09:40:15;;;;;;;17.67;11.27;;;;;;;;;;5094159;28;20177;-65
2022/03/03 09:42:41;;;;;;;17.40;10.83;;;;;;;;;;5094045;28;20220;-64
2022/03/03 09:45:08;;;;;;;18.77;9.97;;;;;;;;;;5094164;28;20572;-68
2022/03/03 09:47:35;;;;;;;17.87;11.03;;;;;;;;;;5076302;28;20641;-65
2022/03/03 09:50:01;;;;;;;15.77;9.30;;;;;;;;;;5094095;28;20310;-62
2022/03/03 09:52:28;;;;;;;17.10;9.77;;;;;;;;;;5093879;28;20188;-64
2022/03/03 09:54:55;;;;;;;17.50;10.93;;;;;;;;;;5093820;28;20203;-64
2022/03/03 09:57:21;;;;;;;14.83;9.07;;;;;;;;;;5075551;28;20177;-64
2022/03/03 09:59:48;;;;;;;13.63;9.27;;;;;;;;;;5093903;28;20531;-64
2022/03/03 10:02:14;;;;;;;13.00;9.27;;;;;;;;;;5093493;28;20632;-64
2022/03/03 10:04:40;;;;;;;14.00;10.10;;;;;;;;;;5075349;28;20673;-64
2022/03/03 10:07:07;;;;;;;13.00;9.60;;;;;;;;;;5093722;28;20264;-65
2022/03/03 10:09:59;;;;;;;12.63;9.23;;;;;;;;;;5093299;28;20256;-64
2022/03/03 10:12:21;;;;;;;13.83;8.93;;;;;;;;;;5093340;28;20242;-61
2022/03/03 10:14:48;;;;;;;16.17;9.73;;;;;;;;;;5075263;28;20283;-64
2022/03/03 10:17:14;;;;;;;12.97;9.90;;;;;;;;;;5093407;28;20180;-64
2022/03/03 10:19:57;;;;;;;13.93;9.70;;;;;;;;;;5093403;28;20177;-65
2022/03/03 10:22:42;;;;;;;10.83;8.60;;;;;;;;;;5093012;28;20201;-64
2022/03/03 10:25:09;;;;;;;10.73;7.77;;;;;;;;;;5093371;28;20169;-64
2022/03/03 10:27:35;;;;;;;15.47;9.13;;;;;;;;;;5093231;28;20178;-64
2022/03/03 10:30:02;;;;;;;9.57;7.73;;;;;;;;;;5093212;28;20581;-64
2022/03/03 10:32:28;;;;;;;14.80;8.60;;;;;;;;;;5093361;28;20169;-64
2022/03/03 10:35:01;;;;;;;9.87;8.30;;;;;;;;;;5093131;28;20188;-64
2022/03/03 10:37:27;;;;;;;10.30;8.47;;;;;;;;;;5093368;28;20172;-64
2022/03/03 10:39:57;;;;;;;13.87;8.73;;;;;;;;;;5093209;28;20263;-64
2022/03/03 10:42:24;;;;;;;10.73;7.60;;;;;;;;;;5093045;28;20201;-65
2022/03/03 10:44:51;;;;;;;13.67;9.00;;;;;;;;;;5093094;28;20169;-64
2022/03/03 10:47:26;;;;;;;12.33;8.10;;;;;;;;;;5093326;28;20537;-63
2022/03/03 10:49:54;;;;;;;11.57;9.50;;;;;;;;;;5093533;28;20613;-64
2022/03/03 10:52:21;;;;;;;12.33;8.70;;;;;;;;;;5093286;28;20180;-64
2022/03/03 10:55:10;;;;;;;11.43;9.03;;;;;;;;;;5093307;28;20177;-65
2022/03/03 10:57:40;;;;;;;12.57;8.83;;;;;;;;;;5093254;28;20188;-64
2022/03/03 11:00:09;;;;;;;9.97;7.67;;;;;;;;;;5093021;28;20182;-64
2022/03/03 11:02:36;;;;;;;10.93;8.77;;;;;;;;;;5092818;28;20208;-64
2022/03/03 11:05:03;;;;;;;10.90;8.13;;;;;;;;;;5074796;28;20547;-64
2022/03/03 11:07:29;;;;;;;13.37;9.10;;;;;;;;;;5093021;28;20182;-64
2022/03/03 11:09:56;;;;;;;11.60;8.30;;;;;;;;;;5092947;28;20181;-64
2022/03/03 11:12:22;;;;;;;15.07;10.40;;;;;;;;;;5092823;28;20177;-63
2022/03/03 11:14:48;;;;;;;19.07;10.60;;;;;;;;;;5092772;28;20649;-64
2022/03/03 11:17:15;;;;;;;15.20;10.10;;;;;;;;;;5092829;28;20260;-64
2022/03/03 11:19:41;;;;;;;14.27;10.90;;;;;;;;;;5093084;28;20184;-64
2022/03/03 11:22:08;;;;;;;18.90;11.60;;;;;;;;;;5095446;28;20207;-63
2022/03/03 11:24:38;;;;;;;14.60;10.23;;;;;;;;;;5078213;28;20244;-64
2022/03/03 11:27:04;;;;;;;17.13;11.50;;;;;;;;;;5096533;28;20150;-65
2022/03/03 11:29:32;;;;;;;16.10;11.07;;;;;;;;;;5096499;28;20252;-64
2022/03/03 11:32:03;;;;;;;15.40;10.37;;;;;;;;;;5096767;28;20226;-64
2022/03/03 11:34:32;;;;;;;14.90;11.63;;;;;;;;;;5096571;28;20189;-63
2022/03/03 11:37:07;;;;;;;15.53;11.17;;;;;;;;;;5096272;28;20276;-65
2022/03/03 11:39:41;;;;;;;16.33;9.57;;;;;;;;;;5096290;28;20660;-64
2022/03/03 11:42:22;;;;;;;13.57;10.23;;;;;;;;;;5096524;28;20224;-64
2022/03/03 11:44:49;;;;;;;15.17;10.37;;;;;;;;;;5096062;28;20174;-64
2022/03/03 11:47:23;;;;;;;15.23;10.60;;;;;;;;;;5078074;28;20204;-64
2022/03/03 11:50:07;;;;;;;17.73;11.37;;;;;;;;;;5096459;28;20169;-64
2022/03/03 11:52:35;;;;;;;16.17;10.63;;;;;;;;;;5096005;28;20173;-64
2022/03/03 11:55:21;;;;;;;12.80;9.70;;;;;;;;;;5095990;28;20181;-65
2022/03/03 11:57:46;;;;;;;18.50;10.77;;;;;;;;;;5095807;28;20641;-64
2022/03/03 12:00:18;;;;;;;15.60;10.43;;;;;;;;;;5095810;28;20222;-65
2022/03/03 12:02:53;;;;;;;15.83;11.80;;;;;;;;;;5077603;28;20262;-64
2022/03/03 12:05:28;;;;;;;13.33;9.57;;;;;;;;;;5096111;28;20166;-65
2022/03/03 12:07:57;;;;;;;22.03;11.60;;;;;;;;;;5095750;28;20173;-64
2022/03/03 12:10:23;;;;;;;18.50;10.90;;;;;;;;;;5095969;28;20251;-64
2022/03/03 12:12:49;;;;;;;13.53;9.20;;;;;;;;;;5095549;28;20274;-64
2022/03/03 12:15:15;;;;;;;11.70;9.50;;;;;;;;;;5095526;28;20270;-65
2022/03/03 12:18:01;;;;;;;17.53;11.63;;;;;;;;;;5077427;28;20187;-64
2022/03/03 12:20:29;;;;;;;13.33;10.70;;;;;;;;;;5077409;28;20173;-62
2022/03/03 12:23:05;;;;;;;17.53;10.93;;;;;;;;;;5095050;28;20248;-64
2022/03/03 12:25:51;;;;;;;16.37;10.70;;;;;;;;;;5077186;28;20180;-63
2022/03/03 12:28:19;;;;;;;15.80;10.77;;;;;;;;;;5078922;28;20189;-64
2022/03/03 12:30:46;;;;;;;21.17;11.57;;;;;;;;;;5095361;28;20629;-63
2022/03/03 12:33:22;;;;;;;17.77;11.87;;;;;;;;;;5076092;28;20571;-64
2022/03/03 12:35:49;;;;;;;14.37;11.13;;;;;;;;;;5095249;28;20177;-64
2022/03/03 12:38:15;;;;;;;14.73;11.07;;;;;;;;;;5077039;28;20188;-63
2022/03/03 12:40:42;;;;;;;14.13;10.47;;;;;;;;;;5095099;28;20212;-62
2022/03/03 12:43:12;;;;;;;21.07;11.90;;;;;;;;;;5094830;28;20216;-63
2022/03/03 12:45:39;;;;;;;20.27;11.87;;;;;;;;;;5095157;28;20181;-64
2022/03/03 12:48:06;;;;;;;15.40;11.27;;;;;;;;;;5094987;28;20192;-64
2022/03/03 12:50:33;;;;;;;16.77;10.93;;;;;;;;;;5076833;28;20177;-63
2022/03/03 12:53:02;;;;;;;14.67;11.27;;;;;;;;;;5095097;28;20583;-64
2022/03/03 12:55:54;;;;;;;14.17;10.73;;;;;;;;;;5077290;28;20185;-63
2022/03/03 12:58:20;;;;;;;14.57;9.97;;;;;;;;;;5090517;28;20200;-64
2022/03/03 13:00:50;;;;;;;16.60;10.77;;;;;;;;;;5076670;28;20177;-63
2022/03/03 13:03:20;;;;;;;13.97;9.70;;;;;;;;;;5094960;28;20216;-63
2022/03/03 13:05:50;;;;;;;15.07;10.90;;;;;;;;;;5076628;28;20177;-64
2022/03/03 13:08:26;;;;;;;18.27;10.93;;;;;;;;;;5094645;28;20203;-64
2022/03/03 13:10:56;;;;;;;18.03;10.20;;;;;;;;;;5076399;28;20242;-64
2022/03/03 13:13:22;;;;;;;16.03;10.63;;;;;;;;;;5094901;28;20204;-63
2022/03/03 13:15:49;;;;;;;14.63;9.77;;;;;;;;;;5076366;28;20177;-64
2022/03/03 13:18:17;;;;;;;17.33;11.53;;;;;;;;;;5094423;28;20169;-64
2022/03/03 13:20:54;;;;;;;12.43;10.77;;;;;;;;;;5076278;28;20226;-63
2022/03/03 13:23:20;;;;;;;14.20;9.80;;;;;;;;;;5075856;28;20220;-63
2022/03/03 13:25:46;;;;;;;15.30;10.30;;;;;;;;;;5075996;28;20173;-64
2022/03/03 13:28:23;;;;;;;14.27;10.97;;;;;;;;;;5094555;28;20184;-62
2022/03/03 13:30:50;;;;;;;17.43;10.80;;;;;;;;;;5094470;28;20248;-65
2022/03/03 13:33:16;;;;;;;16.63;9.50;;;;;;;;;;5094276;28;20268;-64
2022/03/03 13:35:42;;;;;;;13.80;10.23;;;;;;;;;;5078557;22;20233;-65
2022/03/03 13:38:08;;;;;;;19.23;10.70;;;;;;;;;;5073846;28;20249;-65
2022/03/03 13:40:35;;;;;;;12.73;9.90;;;;;;;;;;5055797;28;20205;-65
2022/03/03 13:43:01;;;;;;;13.90;10.13;;;;;;;;;;5073634;28;20678;-65
2022/03/03 13:45:31;;;;;;;13.97;10.50;;;;;;;;;;5074113;28;20194;-65
2022/03/03 13:48:01;;;;;;;13.47;10.57;;;;;;;;;;5073628;28;20178;-66
2022/03/03 13:50:28;;;;;;;14.33;9.63;;;;;;;;;;5073478;28;20174;-66
2022/03/03 13:52:54;;;;;;;13.20;9.50;;;;;;;;;;5073510;28;20174;-65
2022/03/03 13:55:20;;;;;;;14.50;10.30;;;;;;;;;;5073320;28;20280;-65
2022/03/03 13:57:53;;;;;;;14.20;10.10;;;;;;;;;;5073415;28;20181;-65
2022/03/03 14:00:23;;;;;;;13.40;10.33;;;;;;;;;;5055737;28;20587;-65
2022/03/03 14:02:51;;;;;;;11.50;9.03;;;;;;;;;;5073223;28;20740;-66
2022/03/03 14:05:17;;;;;;;13.10;9.43;;;;;;;;;;5073564;28;20204;-65
2022/03/03 14:07:50;;;;;;;11.60;10.13;;;;;;;;;;5055504;28;20178;-65
2022/03/03 14:10:16;;;;;;;11.80;9.53;;;;;;;;;;5055308;28;20174;-65
2022/03/03 14:13:04;;;;;;;14.20;10.13;;;;;;;;;;5073238;28;20256;-65
2022/03/03 14:15:31;;;;;;;18.23;9.43;;;;;;;;;;5073126;28;20236;-66
2022/03/03 14:17:57;;;;;;;12.23;9.40;;;;;;;;;;5073100;28;20182;-65
2022/03/03 14:20:23;;;;;;;14.07;9.47;;;;;;;;;;5073153;28;20185;-65